PWSweather.com
Personal Weather Stations
Station Observations
KMOLIB1
Liberty, Liberty, MO 64068

LibertyLiberty, MO 64068

Lat: 39.24, Lon: -94.45

Elevation: 866

Station Type:

Latest ConditionsUpdated 6:05:01 AM CST Sunday, Jan 20, 2019
Currently Today's Max Today's Min Today's Average
Temperature 6.0°F-14.4°C 8.0°F-13.3°C 6.0°F-14.4°C 7.1°F-13.8°C
Dew Point -14.2°F-25.7°C -11.8°F-24.3°C -14.2°F-25.7°C -13.0°F-25.0°C
Winds Calm Calm 12.0 mph -19.3 kmh - - 4.4 mph 7.1 kmh
Wind Gusts 12.0 mph19.3 kmh 12.0 mph19.3 kmh - -
Humidity 38% 39% 38% 38%
Pressure 210.83 in7139.5 mb 210.87 in7140.9 mb 210.83 in7139.5 mb -
Hour Temp Dew Point Humidity Winds Wind Gusts Pressure Precip Precip Rate Daily Precip Total
06:05 AM 6.0°F-14.4°C -14.2°F-25.7°C 38% Calm Calm 12.0 mph19.3 kmh 210.83 in7139.5 mb 0.00 in0.0 mm 0.00 in0.0 mm 0.00 in0.0 mm
06:00 AM 6.0°F-14.4°C -14.2°F-25.7°C 38% Calm Calm 12.0 mph19.3 kmh 210.83 in7139.5 mb 0.00 in0.0 mm 0.00 in0.0 mm 0.00 in0.0 mm
05:55 AM 6.0°F-14.4°C -14.2°F-25.7°C 38% Calm Calm 12.0 mph19.3 kmh 210.84 in7139.9 mb 0.00 in0.0 mm 0.00 in0.0 mm 0.00 in0.0 mm
05:50 AM 6.0°F-14.4°C -14.2°F-25.7°C 38% Calm Calm 12.0 mph19.3 kmh 210.84 in7139.9 mb 0.00 in0.0 mm 0.00 in0.0 mm 0.00 in0.0 mm
05:45 AM 6.0°F-14.4°C -14.2°F-25.7°C 38% Calm Calm 12.0 mph19.3 kmh 210.83 in7139.5 mb 0.00 in0.0 mm 0.00 in0.0 mm 0.00 in0.0 mm
05:40 AM 6.0°F-14.4°C -14.2°F-25.7°C 38% Calm Calm 12.0 mph19.3 kmh 210.83 in7139.5 mb 0.00 in0.0 mm 0.00 in0.0 mm 0.00 in0.0 mm
05:35 AM 6.0°F-14.4°C -14.2°F-25.7°C 38% Calm Calm 12.0 mph19.3 kmh 210.83 in7139.5 mb 0.00 in0.0 mm 0.00 in0.0 mm 0.00 in0.0 mm
05:30 AM 6.0°F-14.4°C -14.2°F-25.7°C 38% Calm Calm 12.0 mph19.3 kmh 210.83 in7139.5 mb 0.00 in0.0 mm 0.00 in0.0 mm 0.00 in0.0 mm
05:25 AM 6.0°F-14.4°C -14.2°F-25.7°C 38% 1.0 mph NE1.6 kmh NE 12.0 mph19.3 kmh 210.85 in7140.2 mb 0.00 in0.0 mm 0.00 in0.0 mm 0.00 in0.0 mm
05:20 AM 6.0°F-14.4°C -14.2°F-25.7°C 38% Calm Calm 12.0 mph19.3 kmh 210.85 in7140.2 mb 0.00 in0.0 mm 0.00 in0.0 mm 0.00 in0.0 mm
05:15 AM 6.0°F-14.4°C -14.2°F-25.7°C 38% Calm Calm 12.0 mph19.3 kmh 210.85 in7140.2 mb 0.00 in0.0 mm 0.00 in0.0 mm 0.00 in0.0 mm
05:10 AM 6.0°F-14.4°C -14.2°F-25.7°C 38% 1.0 mph NNE1.6 kmh NNE 12.0 mph19.3 kmh 210.85 in7140.2 mb 0.00 in0.0 mm 0.00 in0.0 mm 0.00 in0.0 mm
05:05 AM 6.0°F-14.4°C -14.2°F-25.7°C 38% 2.0 mph E3.2 kmh E 12.0 mph19.3 kmh 210.85 in7140.2 mb 0.00 in0.0 mm 0.00 in0.0 mm 0.00 in0.0 mm
05:00 AM 6.0°F-14.4°C -14.2°F-25.7°C 38% 2.0 mph NE3.2 kmh NE 12.0 mph19.3 kmh 210.85 in7140.2 mb 0.00 in0.0 mm 0.00 in0.0 mm 0.00 in0.0 mm
04:55 AM 6.0°F-14.4°C -14.2°F-25.7°C 38% Calm Calm 12.0 mph19.3 kmh 210.85 in7140.2 mb 0.00 in0.0 mm 0.00 in0.0 mm 0.00 in0.0 mm
04:50 AM 6.0°F-14.4°C -14.2°F-25.7°C 38% 2.0 mph ENE3.2 kmh ENE 12.0 mph19.3 kmh 210.85 in7140.2 mb 0.00 in0.0 mm 0.00 in0.0 mm 0.00 in0.0 mm
04:45 AM 6.0°F-14.4°C -14.2°F-25.7°C 38% 3.0 mph NE4.8 kmh NE 12.0 mph19.3 kmh 210.86 in7140.5 mb 0.00 in0.0 mm 0.00 in0.0 mm 0.00 in0.0 mm
04:40 AM 6.0°F-14.4°C -14.2°F-25.7°C 38% 6.0 mph NNE9.7 kmh NNE 12.0 mph19.3 kmh 210.86 in7140.5 mb 0.00 in0.0 mm 0.00 in0.0 mm 0.00 in0.0 mm
04:35 AM 6.0°F-14.4°C -14.2°F-25.7°C 38% 1.0 mph NW1.6 kmh NW 12.0 mph19.3 kmh 210.87 in7140.9 mb 0.00 in0.0 mm 0.00 in0.0 mm 0.00 in0.0 mm
04:30 AM 7.0°F-13.9°C -13.3°F-25.2°C 38% 7.0 mph NNE11.3 kmh NNE 12.0 mph19.3 kmh 210.87 in7140.9 mb 0.00 in0.0 mm 0.00 in0.0 mm 0.00 in0.0 mm
04:25 AM 6.0°F-14.4°C -14.2°F-25.7°C 38% 10.0 mph NNE16.1 kmh NNE 12.0 mph19.3 kmh 210.87 in7140.9 mb 0.00 in0.0 mm 0.00 in0.0 mm 0.00 in0.0 mm
04:20 AM 7.0°F-13.9°C -13.3°F-25.2°C 38% 7.0 mph NNE11.3 kmh NNE 12.0 mph19.3 kmh 210.87 in7140.9 mb 0.00 in0.0 mm 0.00 in0.0 mm 0.00 in0.0 mm
04:15 AM 7.0°F-13.9°C -13.3°F-25.2°C 38% 6.0 mph N9.7 kmh N 12.0 mph19.3 kmh 210.86 in7140.5 mb 0.00 in0.0 mm 0.00 in0.0 mm 0.00 in0.0 mm
04:10 AM 7.0°F-13.9°C -13.3°F-25.2°C 38% 5.0 mph NNE8.0 kmh NNE 12.0 mph19.3 kmh 210.86 in7140.5 mb 0.00 in0.0 mm 0.00 in0.0 mm 0.00 in0.0 mm
04:05 AM 7.0°F-13.9°C -13.3°F-25.2°C 38% 3.0 mph N4.8 kmh N 12.0 mph19.3 kmh 210.86 in7140.5 mb 0.00 in0.0 mm 0.00 in0.0 mm 0.00 in0.0 mm
04:00 AM 7.0°F-13.9°C -13.3°F-25.2°C 38% 12.0 mph NNE19.3 kmh NNE 12.0 mph19.3 kmh 210.86 in7140.5 mb 0.00 in0.0 mm 0.00 in0.0 mm 0.00 in0.0 mm
03:55 AM 7.0°F-13.9°C -13.3°F-25.2°C 38% 6.0 mph NNE9.7 kmh NNE 12.0 mph19.3 kmh 210.85 in7140.2 mb 0.00 in0.0 mm 0.00 in0.0 mm 0.00 in0.0 mm
03:50 AM 7.0°F-13.9°C -13.3°F-25.2°C 38% 3.0 mph N4.8 kmh N 12.0 mph19.3 kmh 210.85 in7140.2 mb 0.00 in0.0 mm 0.00 in0.0 mm 0.00 in0.0 mm
03:45 AM 7.0°F-13.9°C -13.3°F-25.2°C 38% 8.0 mph N12.9 kmh N 12.0 mph19.3 kmh 210.86 in7140.5 mb 0.00 in0.0 mm 0.00 in0.0 mm 0.00 in0.0 mm
03:40 AM 7.0°F-13.9°C -13.3°F-25.2°C 38% 6.0 mph NE9.7 kmh NE 12.0 mph19.3 kmh 210.86 in7140.5 mb 0.00 in0.0 mm 0.00 in0.0 mm 0.00 in0.0 mm
03:35 AM 7.0°F-13.9°C -13.3°F-25.2°C 38% 3.0 mph N4.8 kmh N 12.0 mph19.3 kmh 210.86 in7140.5 mb 0.00 in0.0 mm 0.00 in0.0 mm 0.00 in0.0 mm
03:30 AM 7.0°F-13.9°C -13.3°F-25.2°C 38% 6.0 mph NNE9.7 kmh NNE 12.0 mph19.3 kmh 210.86 in7140.5 mb 0.00 in0.0 mm 0.00 in0.0 mm 0.00 in0.0 mm
03:25 AM 7.0°F-13.9°C -13.3°F-25.2°C 38% 8.0 mph NNE12.9 kmh NNE 12.0 mph19.3 kmh 210.85 in7140.2 mb 0.00 in0.0 mm 0.00 in0.0 mm 0.00 in0.0 mm
03:20 AM 7.0°F-13.9°C -13.3°F-25.2°C 38% 7.0 mph N11.3 kmh N 12.0 mph19.3 kmh 210.85 in7140.2 mb 0.00 in0.0 mm 0.00 in0.0 mm 0.00 in0.0 mm
03:15 AM 7.0°F-13.9°C -13.3°F-25.2°C 38% 10.0 mph N16.1 kmh N 12.0 mph19.3 kmh 210.85 in7140.2 mb 0.00 in0.0 mm 0.00 in0.0 mm 0.00 in0.0 mm
03:10 AM 7.0°F-13.9°C -13.3°F-25.2°C 38% 1.0 mph WNW1.6 kmh WNW 12.0 mph19.3 kmh 210.85 in7140.2 mb 0.00 in0.0 mm 0.00 in0.0 mm 0.00 in0.0 mm
03:05 AM 7.0°F-13.9°C -13.3°F-25.2°C 38% 6.0 mph N9.7 kmh N 12.0 mph19.3 kmh 210.86 in7140.5 mb 0.00 in0.0 mm 0.00 in0.0 mm 0.00 in0.0 mm
03:00 AM 7.0°F-13.9°C -13.3°F-25.2°C 38% 7.0 mph N11.3 kmh N 12.0 mph19.3 kmh 210.86 in7140.5 mb 0.00 in0.0 mm 0.00 in0.0 mm 0.00 in0.0 mm
02:55 AM 7.0°F-13.9°C -13.3°F-25.2°C 38% 5.0 mph N8.0 kmh N 12.0 mph19.3 kmh 210.85 in7140.2 mb 0.00 in0.0 mm 0.00 in0.0 mm 0.00 in0.0 mm
02:50 AM 7.0°F-13.9°C -13.3°F-25.2°C 38% Calm Calm 12.0 mph19.3 kmh 210.85 in7140.2 mb 0.00 in0.0 mm 0.00 in0.0 mm 0.00 in0.0 mm
02:45 AM 7.0°F-13.9°C -12.7°F-24.8°C 39% 5.0 mph NNW8.0 kmh NNW 12.0 mph19.3 kmh 210.85 in7140.2 mb 0.00 in0.0 mm 0.00 in0.0 mm 0.00 in0.0 mm
02:40 AM 7.0°F-13.9°C -13.3°F-25.2°C 38% 3.0 mph NNW4.8 kmh NNW 12.0 mph19.3 kmh 210.85 in7140.2 mb 0.00 in0.0 mm 0.00 in0.0 mm 0.00 in0.0 mm
02:35 AM 7.0°F-13.9°C -13.3°F-25.2°C 38% 4.0 mph N6.4 kmh N 12.0 mph19.3 kmh 210.85 in7140.2 mb 0.00 in0.0 mm 0.00 in0.0 mm 0.00 in0.0 mm
02:30 AM 8.0°F-13.3°C -12.3°F-24.6°C 38% 2.0 mph NW3.2 kmh NW 12.0 mph19.3 kmh 210.85 in7140.2 mb 0.00 in0.0 mm 0.00 in0.0 mm 0.00 in0.0 mm
02:25 AM 8.0°F-13.3°C -11.8°F-24.3°C 39% 5.0 mph NNW8.0 kmh NNW 12.0 mph19.3 kmh 210.85 in7140.2 mb 0.00 in0.0 mm 0.00 in0.0 mm 0.00 in0.0 mm
02:20 AM 8.0°F-13.3°C -12.3°F-24.6°C 38% 4.0 mph NW6.4 kmh NW 12.0 mph19.3 kmh 210.85 in7140.2 mb 0.00 in0.0 mm 0.00 in0.0 mm 0.00 in0.0 mm
02:15 AM 8.0°F-13.3°C -12.3°F-24.6°C 38% 2.0 mph NNW3.2 kmh NNW 12.0 mph19.3 kmh 210.85 in7140.2 mb 0.00 in0.0 mm 0.00 in0.0 mm 0.00 in0.0 mm
02:10 AM 8.0°F-13.3°C -12.3°F-24.6°C 38% 3.0 mph NW4.8 kmh NW 12.0 mph19.3 kmh 210.85 in7140.2 mb 0.00 in0.0 mm 0.00 in0.0 mm 0.00 in0.0 mm
02:05 AM 8.0°F-13.3°C -12.3°F-24.6°C 38% 3.0 mph N4.8 kmh N 12.0 mph19.3 kmh 210.86 in7140.5 mb 0.00 in0.0 mm 0.00 in0.0 mm 0.00 in0.0 mm
02:00 AM 8.0°F-13.3°C -12.3°F-24.6°C 38% 5.0 mph NNW8.0 kmh NNW 12.0 mph19.3 kmh 210.86 in7140.5 mb 0.00 in0.0 mm 0.00 in0.0 mm 0.00 in0.0 mm
01:55 AM 8.0°F-13.3°C -12.3°F-24.6°C 38% 6.0 mph WNW9.7 kmh WNW 12.0 mph19.3 kmh 210.86 in7140.5 mb 0.00 in0.0 mm 0.00 in0.0 mm 0.00 in0.0 mm
01:50 AM 8.0°F-13.3°C -12.3°F-24.6°C 38% 6.0 mph NW9.7 kmh NW 12.0 mph19.3 kmh 210.86 in7140.5 mb 0.00 in0.0 mm 0.00 in0.0 mm 0.00 in0.0 mm
01:45 AM 8.0°F-13.3°C -12.3°F-24.6°C 38% 6.0 mph WNW9.7 kmh WNW 12.0 mph19.3 kmh 210.86 in7140.5 mb 0.00 in0.0 mm 0.00 in0.0 mm 0.00 in0.0 mm
01:40 AM 8.0°F-13.3°C -12.3°F-24.6°C 38% 6.0 mph WNW9.7 kmh WNW 12.0 mph19.3 kmh 210.86 in7140.5 mb 0.00 in0.0 mm 0.00 in0.0 mm 0.00 in0.0 mm
01:35 AM 8.0°F-13.3°C -12.3°F-24.6°C 38% 6.0 mph NW9.7 kmh NW 12.0 mph19.3 kmh 210.87 in7140.9 mb 0.00 in0.0 mm 0.00 in0.0 mm 0.00 in0.0 mm
01:30 AM 8.0°F-13.3°C -12.3°F-24.6°C 38% 6.0 mph NW9.7 kmh NW 12.0 mph19.3 kmh 210.87 in7140.9 mb 0.00 in0.0 mm 0.00 in0.0 mm 0.00 in0.0 mm
01:25 AM 8.0°F-13.3°C -12.3°F-24.6°C 38% 7.0 mph WNW11.3 kmh WNW 12.0 mph19.3 kmh 210.87 in7140.9 mb 0.00 in0.0 mm 0.00 in0.0 mm 0.00 in0.0 mm
01:20 AM 8.0°F-13.3°C -12.3°F-24.6°C 38% 6.0 mph W9.7 kmh W 10.0 mph16.1 kmh 210.87 in7140.9 mb 0.00 in0.0 mm 0.00 in0.0 mm 0.00 in0.0 mm
01:15 AM 8.0°F-13.3°C -11.8°F-24.3°C 39% 7.0 mph NW11.3 kmh NW 10.0 mph16.1 kmh 210.86 in7140.5 mb 0.00 in0.0 mm 0.00 in0.0 mm 0.00 in0.0 mm
01:10 AM 8.0°F-13.3°C -12.3°F-24.6°C 38% 3.0 mph WNW4.8 kmh WNW 10.0 mph16.1 kmh 210.86 in7140.5 mb 0.00 in0.0 mm 0.00 in0.0 mm 0.00 in0.0 mm
01:05 AM 8.0°F-13.3°C -11.8°F-24.3°C 39% 5.0 mph WSW8.0 kmh WSW 10.0 mph16.1 kmh 210.86 in7140.5 mb 0.00 in0.0 mm 0.00 in0.0 mm 0.00 in0.0 mm
01:00 AM 8.0°F-13.3°C -11.8°F-24.3°C 39% 5.0 mph WNW8.0 kmh WNW 10.0 mph16.1 kmh 210.86 in7140.5 mb 0.00 in0.0 mm 0.00 in0.0 mm 0.00 in0.0 mm
12:55 AM 8.0°F-13.3°C -11.8°F-24.3°C 39% 9.0 mph WNW14.5 kmh WNW 10.0 mph16.1 kmh 210.86 in7140.5 mb 0.00 in0.0 mm 0.00 in0.0 mm 0.00 in0.0 mm
12:50 AM 8.0°F-13.3°C -11.8°F-24.3°C 39% 7.0 mph WNW11.3 kmh WNW 10.0 mph16.1 kmh 210.86 in7140.5 mb 0.00 in0.0 mm 0.00 in0.0 mm 0.00 in0.0 mm
12:45 AM 8.0°F-13.3°C -11.8°F-24.3°C 39% 6.0 mph WNW9.7 kmh WNW 10.0 mph16.1 kmh 210.85 in7140.2 mb 0.00 in0.0 mm 0.00 in0.0 mm 0.00 in0.0 mm
12:40 AM 8.0°F-13.3°C -11.8°F-24.3°C 39% 8.0 mph NW12.9 kmh NW 10.0 mph16.1 kmh 210.85 in7140.2 mb 0.00 in0.0 mm 0.00 in0.0 mm 0.00 in0.0 mm
12:35 AM 8.0°F-13.3°C -11.8°F-24.3°C 39% 7.0 mph WNW11.3 kmh WNW 10.0 mph16.1 kmh 210.84 in7139.9 mb 0.00 in0.0 mm 0.00 in0.0 mm 0.00 in0.0 mm
12:30 AM 8.0°F-13.3°C -11.8°F-24.3°C 39% 2.0 mph SSE3.2 kmh SSE 10.0 mph16.1 kmh 210.84 in7139.9 mb 0.00 in0.0 mm 0.00 in0.0 mm 0.00 in0.0 mm
12:25 AM 8.0°F-13.3°C -11.8°F-24.3°C 39% 6.0 mph NW9.7 kmh NW 10.0 mph16.1 kmh 210.85 in7140.2 mb 0.00 in0.0 mm 0.00 in0.0 mm 0.00 in0.0 mm
12:20 AM 8.0°F-13.3°C -11.8°F-24.3°C 39% 6.0 mph NW9.7 kmh NW 9.0 mph14.5 kmh 210.85 in7140.2 mb 0.00 in0.0 mm 0.00 in0.0 mm 0.00 in0.0 mm
12:15 AM 8.0°F-13.3°C -11.8°F-24.3°C 39% 7.0 mph NW11.3 kmh NW 9.0 mph14.5 kmh 210.86 in7140.5 mb 0.00 in0.0 mm 0.00 in0.0 mm 0.00 in0.0 mm
12:10 AM 8.0°F-13.3°C -11.8°F-24.3°C 39% 7.0 mph WNW11.3 kmh WNW 7.0 mph11.3 kmh 210.86 in7140.5 mb 0.00 in0.0 mm 0.00 in0.0 mm 0.00 in0.0 mm
12:05 AM 8.0°F-13.3°C -11.8°F-24.3°C 39% 6.0 mph NW9.7 kmh NW 7.0 mph11.3 kmh 210.85 in7140.2 mb 0.00 in0.0 mm 0.00 in0.0 mm 0.00 in0.0 mm
12:00 AM 8.0°F-13.3°C -11.8°F-24.3°C 39% 4.0 mph N6.4 kmh N 4.0 mph6.4 kmh 210.85 in7140.2 mb 0.00 in0.0 mm 0.00 in0.0 mm 0.00 in0.0 mm